This is the latest recevied weather packets stored in our database for station/object KF6GPE. If no packets are shown the sender has not sent any weather packets the latest 10 day(s).
| Time | Temp. | Humidity | Pressure | Rain* | Wind** | Luminosity | Snow |
|---|---|---|---|---|---|---|---|
| 1777419003 | 18.89° C | 63% | 990.5 hPa | 0 mm | - | 1005 W/m² | - |
| 1777418403 | 19.44° C | 61% | 990.5 hPa | 0 mm | - | 1007 W/m² | - |
| 1777417804 | 19.44° C | 63% | 990.5 hPa | 0 mm | - | 1009 W/m² | - |
| 1777417204 | 20° C | 59% | 990.6 hPa | 0 mm | - | 1006 W/m² | - |
| 1777416603 | 21.11° C | 55% | 990.7 hPa | 0 mm | - | 1067 W/m² | - |
| 1777416003 | 21.11° C | 57% | 990.8 hPa | 0 mm | - | 1070 W/m² | - |
| 1777415403 | 21.11° C | 57% | 991 hPa | 0 mm | - | 1072 W/m² | - |
| 1777414803 | 20° C | 58% | 991.1 hPa | 0 mm | - | 1073 W/m² | - |
| 1777414203 | 18.89° C | 60% | 991.2 hPa | 0 mm | - | 1046 W/m² | - |
| 1777413604 | 19.44° C | 63% | 991.3 hPa | 0 mm | - | 1010 W/m² | - |
| 1777413003 | 18.89° C | 65% | 991.5 hPa | 0 mm | - | 1014 W/m² | - |
| 1777412403 | 18.89° C | 64% | 991.5 hPa | 0 mm | - | 1007 W/m² | - |
| 1777411803 | 20° C | 61% | 991.6 hPa | 0 mm | - | 1007 W/m² | - |
| 1777411203 | 20° C | 64% | 991.8 hPa | 0 mm | - | 1076 W/m² | - |
| 1777410603 | 20° C | 59% | 992 hPa | 0 mm | - | 1095 W/m² | - |
| 1777410003 | 18.89° C | 63% | 992 hPa | 0 mm | - | 1091 W/m² | - |
| 1777409403 | 17.78° C | 66% | 992 hPa | 0 mm | - | 1091 W/m² | - |
| 1777408803 | 18.33° C | 64% | 992 hPa | 0 mm | - | 1012 W/m² | - |
| 1777408204 | 18.33° C | 63% | 991.9 hPa | 0 mm | - | 1010 W/m² | - |
| 1777407602 | 20° C | 61% | 992 hPa | 0 mm | - | 1012 W/m² | - |
| 1777407003 | 20.56° C | 54% | 992 hPa | 0 mm | - | 1066 W/m² | - |
| 1777406403 | 20° C | 57% | 992.1 hPa | 0 mm | - | 1019 W/m² | - |
| 1777405803 | 20° C | 54% | 992.2 hPa | 0 mm | - | 1016 W/m² | - |
| 1777404603 | 20° C | 51% | 992.4 hPa | 0 mm | - | 1096 W/m² | - |
| 1777404003 | 19.44° C | 49% | 992.5 hPa | 0 mm | - | 1033 W/m² | - |
* Rain latest hour (hover to see other rain measurements)
** Current wind speed in m/s (hover to see current wind gust speed)